Time;durP1;ratioP1;P1;durP2;ratioP2;P2;SDS_P1;SDS_P2;PMS_P1;PMS_P2;Temp;Humidity;BMP_temperature;BMP_pressure;BME280_temperature;BME280_humidity;BME280_pressure;Samples;Min_cycle;Max_cycle;Signal;HPM_P1;HPM_P2
2022/10/03 00:00:31;;;;;;;33.92;25.25;;;17.50;80.80;;;;;;5033560;28;20329;-16
2022/10/03 00:03:12;;;;;;;39.88;29.42;;;17.50;81.10;;;;;;5033339;28;20033;-15
2022/10/03 00:05:52;;;;;;;41.40;30.30;;;17.50;81.40;;;;;;5033220;28;20079;-16
2022/10/03 00:08:27;;;;;;;37.97;24.98;;;17.50;81.80;;;;;;5033167;28;20025;-15
2022/10/03 00:11:21;;;;;;;34.58;25.30;;;17.40;81.50;;;;;;5033035;28;20041;-15
2022/10/03 00:14:00;;;;;;;;;;;17.40;81.30;;;;;;5033477;28;20029;-15
2022/10/03 00:16:45;;;;;;;43.22;29.08;;;17.40;82.10;;;;;;5033442;28;19912;-15
2022/10/03 00:20:00;;;;;;;35.03;25.08;;;17.40;80.90;;;;;;5033018;28;20080;-15
2022/10/03 00:22:47;;;;;;;43.13;29.67;;;17.40;80.70;;;;;;5015380;28;20022;-17
2022/10/03 00:25:33;;;;;;;43.67;31.63;;;17.40;81.70;;;;;;5032882;28;20034;-16
2022/10/03 00:28:32;;;;;;;47.42;32.03;;;17.40;81.90;;;;;;5032838;28;20021;-15
2022/10/03 00:31:15;;;;;;;48.20;31.70;;;17.30;82.40;;;;;;4989038;28;20060;-15
2022/10/03 00:34:11;;;;;;;49.55;32.53;;;17.20;81.90;;;;;;5033470;28;20037;-16
2022/10/03 00:37:07;;;;;;;44.05;29.75;;;17.20;82.20;;;;;;5033150;28;20034;-15
2022/10/03 00:39:57;;;;;;;37.15;26.42;;;17.10;82.30;;;;;;5033190;28;20083;-16
2022/10/03 00:42:38;;;;;;;43.63;29.45;;;17.10;81.80;;;;;;5033170;28;20049;-16
2022/10/03 00:45:46;;;;;;;42.53;29.13;;;17.00;82.10;;;;;;5032584;28;20030;-16
2022/10/03 00:48:30;;;;;;;58.75;36.97;;;16.90;82.20;;;;;;5032434;28;20034;-16
2022/10/03 00:51:06;;;;;;;;;;;16.90;83.00;;;;;;5033196;28;20057;-16
2022/10/03 00:54:05;;;;;;;41.70;28.55;;;16.90;83.30;;;;;;5033344;28;19909;-15
2022/10/03 00:57:02;;;;;;;48.60;33.42;;;16.80;82.40;;;;;;5032930;28;20031;-17
2022/10/03 01:00:18;;;;;;;43.22;27.75;;;16.80;82.40;;;;;;5032812;28;20061;-17
2022/10/03 01:03:08;;;;;;;49.45;33.15;;;16.70;82.70;;;;;;4953451;29;20060;-15
2022/10/03 01:06:05;;;;;;;45.72;29.58;;;16.70;82.70;;;;;;5032695;28;20109;-16
2022/10/03 01:08:51;;;;;;;50.40;34.38;;;16.60;82.50;;;;;;5036365;28;20046;-16
2022/10/03 01:11:25;;;;;;;44.13;30.23;;;16.60;82.90;;;;;;5036268;28;20055;-15
2022/10/03 01:14:07;;;;;;;40.50;28.98;;;16.60;83.20;;;;;;5036253;28;20075;-16
2022/10/03 01:16:41;;;;;;;36.05;25.02;;;16.50;82.60;;;;;;5037299;28;20369;-15
2022/10/03 01:19:16;;;;;;;37.65;26.02;;;16.50;82.30;;;;;;5036260;28;20029;-15
2022/10/03 01:22:14;;;;;;;38.67;27.13;;;16.50;82.30;;;;;;5036440;28;20381;-16
2022/10/03 01:24:49;;;;;;;38.80;26.70;;;16.50;82.30;;;;;;4956681;29;20035;-16
2022/10/03 01:27:31;;;;;;;41.47;27.50;;;16.60;82.30;;;;;;4955968;29;20027;-15
2022/10/03 01:30:23;;;;;;;50.10;32.70;;;16.50;82.40;;;;;;4955864;29;20118;-16
2022/10/03 01:33:17;;;;;;;56.38;35.78;;;16.50;83.20;;;;;;4955714;29;20048;-16
2022/10/03 01:35:46;;;;;;;49.80;32.72;;;16.50;83.70;;;;;;4955889;29;20151;-15
2022/10/03 01:38:26;;;;;;;57.33;36.13;;;16.50;84.10;;;;;;4955688;29;20038;-15
2022/10/03 01:41:02;;;;;;;54.00;35.25;;;16.50;84.10;;;;;;4955487;29;20439;-17
2022/10/03 01:43:49;;;;;;;59.22;39.20;;;16.50;84.10;;;;;;4955595;29;20114;-16
2022/10/03 01:46:27;;;;;;;49.58;32.28;;;16.50;84.60;;;;;;4955591;29;20031;-16
2022/10/03 01:49:21;;;;;;;60.15;38.80;;;16.50;84.00;;;;;;4955466;29;20400;-15
2022/10/03 01:52:00;;;;;;;54.40;35.05;;;16.50;84.40;;;;;;4955412;29;20438;-16
2022/10/03 01:54:45;;;;;;;48.30;32.33;;;16.50;84.10;;;;;;4955545;29;20069;-15
2022/10/03 01:57:23;;;;;;;55.80;36.45;;;16.50;83.90;;;;;;4955265;29;20372;-16
2022/10/03 02:00:22;;;;;;;60.53;38.38;;;16.40;84.30;;;;;;4955685;29;20027;-15
2022/10/03 02:03:10;;;;;;;54.72;35.67;;;16.50;84.40;;;;;;5020817;28;20570;-16
2022/10/03 02:06:14;;;;;;;53.15;35.22;;;16.40;83.90;;;;;;5036256;28;20030;-15
2022/10/03 02:08:54;;;;;;;54.75;35.05;;;16.40;83.90;;;;;;5035248;28;20026;-18
2022/10/03 02:11:37;;;;;;;53.58;35.13;;;16.40;84.00;;;;;;5035290;28;20080;-16
2022/10/03 02:14:19;;;;;;;;;;;16.40;84.00;;;;;;5035575;28;20049;-15
2022/10/03 02:17:01;;;;;;;48.25;31.58;;;16.30;84.60;;;;;;5035361;28;19905;-15
2022/10/03 02:19:52;;;;;;;48.50;32.22;;;16.30;83.90;;;;;;5035745;28;20071;-15
2022/10/03 02:22:53;;;;;;;45.75;30.52;;;16.30;83.70;;;;;;5035091;28;20084;-17
2022/10/03 02:25:39;;;;;;;43.67;29.13;;;16.30;83.40;;;;;;5021317;28;20037;-17
2022/10/03 02:28:32;;;;;;;53.90;37.20;;;16.20;83.40;;;;;;5035232;28;20080;-16
2022/10/03 02:30:58;;;;;;;58.33;38.20;;;16.20;83.30;;;;;;5034870;28;20026;-15
2022/10/03 02:33:45;;;;;;;46.63;29.88;;;16.20;83.20;;;;;;5034784;28;20033;-15
2022/10/03 02:36:47;;;;;;;38.58;24.80;;;16.10;82.90;;;;;;5035150;28;20033;-16
2022/10/03 02:39:43;;;;;;;36.05;25.55;;;16.10;82.70;;;;;;5035081;28;20029;-15
2022/10/03 02:42:36;;;;;;;36.67;25.02;;;16.10;82.70;;;;;;5034722;28;20049;-16
2022/10/03 02:45:30;;;;;;;36.53;23.85;;;16.10;82.60;;;;;;5034372;28;20033;-16
2022/10/03 02:48:07;;;;;;;36.50;24.42;;;16.00;82.50;;;;;;5034417;28;20401;-16
2022/10/03 02:51:00;;;;;;;37.88;24.63;;;16.00;82.50;;;;;;5034545;28;20030;-16
2022/10/03 02:53:46;;;;;;;48.28;31.58;;;16.00;82.40;;;;;;5034459;28;20381;-16
2022/10/03 02:56:55;;;;;;;39.45;26.08;;;16.00;82.30;;;;;;5034734;28;20069;-16
2022/10/03 02:59:41;;;;;;;38.47;24.70;;;16.00;82.20;;;;;;5034599;28;20025;-15
2022/10/03 03:02:07;;;;;;;52.67;34.33;;;15.90;82.20;;;;;;5034545;28;20033;-15
2022/10/03 03:05:12;;;;;;;40.40;26.40;;;15.90;82.30;;;;;;5034863;28;20441;-16
2022/10/03 03:07:50;;;;;;;38.42;23.80;;;15.80;82.30;;;;;;5034436;28;20072;-16
2022/10/03 03:10:19;;;;;;;34.50;23.23;;;15.70;82.20;;;;;;5033918;28;20456;-16
2022/10/03 03:13:20;;;;;;;33.42;23.38;;;15.70;82.30;;;;;;5034235;28;20036;-14
2022/10/03 03:16:04;;;;;;;30.67;21.33;;;15.70;82.30;;;;;;5034640;28;20112;-15
2022/10/03 03:18:36;;;;;;;39.33;25.30;;;15.60;82.40;;;;;;5033994;28;20458;-17
2022/10/03 03:21:10;;;;;;;33.28;22.92;;;15.60;82.30;;;;;;5033915;28;20076;-17
2022/10/03 03:23:54;;;;;;;28.55;19.23;;;15.60;82.30;;;;;;5033922;28;20061;-15
2022/10/03 03:26:40;;;;;;;30.00;20.83;;;15.50;82.20;;;;;;5034083;28;20512;-16
2022/10/03 03:29:20;;;;;;;36.53;25.08;;;15.50;82.30;;;;;;5032839;28;20040;-15
2022/10/03 03:32:31;;;;;;;38.78;26.50;;;15.50;82.30;;;;;;5033837;28;20039;-16
2022/10/03 03:35:22;;;;;;;40.17;27.55;;;15.40;82.20;;;;;;5033635;28;20100;-16
2022/10/03 03:38:15;;;;;;;32.83;21.95;;;15.40;82.30;;;;;;5033998;28;20036;-15
2022/10/03 03:40:56;;;;;;;22.75;16.73;;;15.40;82.40;;;;;;5034026;28;20045;-15
2022/10/03 03:43:25;;;;;;;27.42;19.33;;;15.30;82.30;;;;;;5033982;28;20025;-16
2022/10/03 03:46:13;;;;;;;33.40;22.23;;;15.30;82.30;;;;;;5033596;28;20049;-17
2022/10/03 03:49:00;;;;;;;33.25;23.88;;;15.30;82.30;;;;;;5033419;28;20448;-15
2022/10/03 03:51:50;;;;;;;39.03;26.92;;;15.20;82.30;;;;;;5033450;28;20025;-16
2022/10/03 03:54:25;;;;;;;37.55;24.60;;;15.10;82.30;;;;;;5034317;28;20025;-15
2022/10/03 03:57:10;;;;;;;55.45;34.67;;;15.10;82.30;;;;;;5033503;28;20018;-15
2022/10/03 03:59:45;;;;;;;53.97;33.97;;;15.00;82.30;;;;;;5033481;28;20428;-16
2022/10/03 04:02:30;;;;;;;47.97;31.70;;;15.00;82.40;;;;;;5033259;28;20036;-15
2022/10/03 04:05:14;;;;;;;45.35;29.65;;;14.90;82.50;;;;;;5033125;28;20043;-16
2022/10/03 04:07:49;;;;;;;42.20;27.23;;;14.80;82.60;;;;;;5033664;28;20048;-15
2022/10/03 04:10:38;;;;;;;45.15;28.75;;;14.70;82.80;;;;;;5033432;28;20033;-15
2022/10/03 04:13:24;;;;;;;40.95;26.77;;;14.70;82.90;;;;;;5032912;28;20041;-15
2022/10/03 04:16:09;;;;;;;32.72;23.05;;;14.70;83.20;;;;;;5033694;28;20030;-15
2022/10/03 04:18:59;;;;;;;56.10;34.17;;;14.60;83.10;;;;;;5033079;28;20507;-15
2022/10/03 04:21:39;;;;;;;46.75;30.30;;;14.60;83.20;;;;;;5033089;28;20071;-18
2022/10/03 04:24:37;;;;;;;39.60;26.13;;;14.60;83.20;;;;;;5015428;28;20032;-15
2022/10/03 04:27:11;;;;;;;58.08;35.97;;;14.60;83.20;;;;;;5033109;28;20025;-15
2022/10/03 04:29:39;;;;;;;;;;;14.50;83.30;;;;;;5033441;28;20033;-15
2022/10/03 04:32:51;;;;;;;33.95;22.25;;;14.50;83.40;;;;;;5033755;28;20022;-15
2022/10/03 04:35:44;;;;;;;33.83;23.08;;;14.50;83.30;;;;;;5032931;28;20032;-15
2022/10/03 04:38:13;;;;;;;29.27;20.15;;;14.40;83.30;;;;;;5032912;28;20075;-17
2022/10/03 04:40:58;;;;;;;29.45;20.55;;;14.40;83.30;;;;;;5034029;28;20114;-15
2022/10/03 04:43:42;;;;;;;34.80;22.83;;;14.50;83.20;;;;;;5037384;28;20049;-16
2022/10/03 04:46:46;;;;;;;50.65;31.45;;;14.40;83.20;;;;;;5036790;28;20088;-15
2022/10/03 04:49:37;;;;;;;39.90;26.52;;;14.40;83.10;;;;;;5036566;28;20033;-18
2022/10/03 04:52:15;;;;;;;50.30;30.88;;;14.30;83.20;;;;;;5036779;28;20034;-16
2022/10/03 04:54:47;;;;;;;47.00;31.30;;;14.20;83.30;;;;;;5036908;28;20478;-16
2022/10/03 04:57:27;;;;;;;40.28;25.52;;;14.20;83.50;;;;;;5036852;28;20084;-17
2022/10/03 05:00:12;;;;;;;42.45;27.40;;;14.20;83.50;;;;;;5036480;28;20107;-17
2022/10/03 05:02:53;;;;;;;39.42;26.13;;;14.20;83.50;;;;;;5036563;28;20033;-16
2022/10/03 05:05:31;;;;;;;31.80;21.42;;;14.20;83.50;;;;;;5036792;28;20029;-16
2022/10/03 05:08:04;;;;;;;35.08;23.83;;;14.20;83.60;;;;;;5036765;28;20496;-17
2022/10/03 05:10:48;;;;;;;47.85;29.45;;;14.20;83.60;;;;;;5036444;28;20461;-16
2022/10/03 05:13:31;;;;;;;38.83;27.48;;;14.10;83.60;;;;;;5036372;28;20485;-16
2022/10/03 05:16:06;;;;;;;38.92;25.50;;;14.10;83.60;;;;;;5036374;28;20489;-17
2022/10/03 05:18:56;;;;;;;45.10;29.10;;;14.00;83.70;;;;;;5036226;28;20026;-15
2022/10/03 05:21:46;;;;;;;35.67;23.17;;;14.00;83.70;;;;;;4990340;28;20064;-16
2022/10/03 05:24:20;;;;;;;28.73;20.33;;;14.00;83.80;;;;;;5036468;28;20139;-16
2022/10/03 05:27:27;;;;;;;40.42;26.23;;;14.00;83.70;;;;;;5036315;28;20026;-16
2022/10/03 05:30:06;;;;;;;27.35;18.98;;;14.00;83.70;;;;;;5031327;28;20036;-16
2022/10/03 05:32:41;;;;;;;29.08;20.23;;;14.00;83.60;;;;;;5036051;28;20477;-16
2022/10/03 05:35:28;;;;;;;29.65;19.83;;;14.00;83.70;;;;;;5036408;28;20036;-17
2022/10/03 05:38:09;;;;;;;29.30;19.75;;;14.00;83.60;;;;;;5035920;28;20030;-16
2022/10/03 05:40:39;;;;;;;30.27;20.67;;;14.00;83.60;;;;;;5036532;28;20076;-15
2022/10/03 05:43:43;;;;;;;27.92;19.45;;;14.10;83.50;;;;;;5035543;28;20025;-16
2022/10/03 05:46:56;;;;;;;28.13;18.63;;;14.10;83.40;;;;;;5036170;28;20100;-16
2022/10/03 05:49:39;;;;;;;26.27;17.05;;;14.10;83.40;;;;;;5035594;28;20040;-15
2022/10/03 05:52:23;;;;;;;29.75;19.92;;;14.20;83.50;;;;;;5035121;28;20021;-16
2022/10/03 05:55:17;;;;;;;30.92;20.80;;;14.30;83.60;;;;;;5017621;28;20041;-16
2022/10/03 05:57:46;;;;;;;48.10;30.73;;;14.40;83.70;;;;;;5035566;28;20079;-18
2022/10/03 06:00:22;;;;;;;40.20;26.15;;;14.50;83.70;;;;;;5035694;28;20026;-15
2022/10/03 06:02:59;;;;;;;34.72;24.08;;;14.60;83.90;;;;;;5035402;28;20017;-17
2022/10/03 06:05:53;;;;;;;38.97;25.58;;;14.70;84.00;;;;;;5035431;28;20116;-16
2022/10/03 06:08:22;;;;;;;;;;;14.80;84.30;;;;;;5035609;28;20030;-15
2022/10/03 06:11:19;;;;;;;28.10;18.63;;;14.90;84.30;;;;;;5035084;28;20007;-17
2022/10/03 06:13:48;;;;;;;29.88;21.52;;;15.10;84.30;;;;;;5035782;28;20029;-17
2022/10/03 06:16:39;;;;;;;36.42;25.45;;;15.30;84.20;;;;;;5035204;28;20032;-15
2022/10/03 06:19:14;;;;;;;28.30;19.42;;;15.40;84.10;;;;;;5034968;28;20033;-15
2022/10/03 06:22:01;;;;;;;25.85;18.63;;;15.60;84.00;;;;;;5035064;28;20030;-14
2022/10/03 06:24:34;;;;;;;31.88;21.27;;;15.70;83.90;;;;;;5035287;28;20504;-15
2022/10/03 06:27:24;;;;;;;32.72;22.42;;;15.90;83.80;;;;;;5034850;28;20025;-16
2022/10/03 06:30:11;;;;;;;31.85;23.63;;;16.20;83.60;;;;;;5034793;28;20036;-16
2022/10/03 06:32:50;;;;;;;33.90;24.23;;;16.50;83.30;;;;;;5034789;28;20036;-16
2022/10/03 06:35:46;;;;;;;29.20;21.05;;;16.80;82.90;;;;;;5035121;28;20083;-15
2022/10/03 06:38:21;;;;;;;29.17;22.08;;;17.00;82.50;;;;;;5035124;28;20087;-16
2022/10/03 06:41:05;;;;;;;30.13;21.23;;;17.30;82.20;;;;;;5034764;28;20026;-14
2022/10/03 06:43:34;;;;;;;26.35;19.80;;;17.50;81.80;;;;;;5035097;28;20474;-15
2022/10/03 06:46:21;;;;;;;25.38;19.13;;;17.70;81.40;;;;;;5034935;28;20110;-15
2022/10/03 06:49:12;;;;;;;27.10;18.58;;;18.10;81.00;;;;;;5034868;28;20025;-15
2022/10/03 06:51:50;;;;;;;23.38;18.55;;;18.40;80.70;;;;;;5035115;28;20022;-15
2022/10/03 06:54:16;;;;;;;20.85;16.95;;;18.70;80.20;;;;;;5034783;28;20037;-14
2022/10/03 06:56:49;;;;;;;27.75;21.95;;;19.00;79.70;;;;;;5034385;28;20399;-15
2022/10/03 06:59:39;;;;;;;29.48;22.17;;;19.30;78.80;;;;;;5034675;28;20048;-15
2022/10/03 07:02:30;;;;;;;24.75;19.30;;;19.40;77.50;;;;;;5034680;28;20026;-15
2022/10/03 07:05:08;;;;;;;23.38;18.23;;;19.40;77.10;;;;;;5034174;28;20044;-14
2022/10/03 07:08:01;;;;;;;18.67;14.82;;;19.40;77.20;;;;;;5034288;28;20039;-15
2022/10/03 07:10:29;;;;;;;20.92;16.73;;;19.40;76.90;;;;;;5034477;28;20036;-16
2022/10/03 07:13:34;;;;;;;17.90;13.93;;;19.50;75.40;;;;;;5034549;28;20025;-15
2022/10/03 07:16:07;;;;;;;15.02;11.93;;;19.60;76.10;;;;;;5016755;28;20033;-15
2022/10/03 07:18:43;;;;;;;;;;;19.80;76.00;;;;;;5034504;28;20037;-15
2022/10/03 07:21:42;;;;;;;16.95;12.55;;;19.90;73.90;;;;;;5034133;28;20327;-15
2022/10/03 07:24:45;;;;;;;12.95;10.80;;;20.10;74.50;;;;;;5033958;28;20026;-15
2022/10/03 07:27:39;;;;;;;16.00;11.88;;;20.20;73.80;;;;;;5033660;28;20048;-15
2022/10/03 07:30:15;;;;;;;13.40;10.88;;;20.40;73.00;;;;;;5033724;28;20378;-14
2022/10/03 07:33:16;;;;;;;12.60;9.23;;;20.50;72.60;;;;;;5033990;28;20351;-14
2022/10/03 07:38:56;;;;;;;13.77;10.65;;;20.60;72.10;;;;;;5034029;28;20458;-15
2022/10/03 07:42:02;;;;;;;12.43;10.02;;;20.80;71.50;;;;;;5033731;28;20025;-14
2022/10/03 07:44:39;;;;;;;14.35;10.82;;;20.90;71.00;;;;;;5033814;28;20029;-15
2022/10/03 07:47:10;;;;;;;10.68;8.60;;;21.00;70.90;;;;;;5033435;28;20028;-16
2022/10/03 07:49:58;;;;;;;11.88;8.98;;;21.20;70.40;;;;;;5033341;28;20087;-15
2022/10/03 07:52:59;;;;;;;13.98;10.63;;;21.40;69.50;;;;;;5033478;28;20041;-14
2022/10/03 07:56:01;;;;;;;13.45;9.80;;;21.70;68.20;;;;;;5033934;28;20472;-15
2022/10/03 07:58:42;;;;;;;13.73;9.10;;;21.80;67.80;;;;;;5033468;28;20057;-15
2022/10/03 08:01:29;;;;;;;10.15;8.00;;;21.80;65.90;;;;;;5033143;28;20068;-15
2022/10/03 08:04:32;;;;;;;9.65;7.47;;;21.90;67.10;;;;;;5033820;28;20092;-14
2022/10/03 08:07:13;;;;;;;15.98;9.32;;;21.90;66.80;;;;;;5032967;28;20029;-15
2022/10/03 08:09:53;;;;;;;8.70;6.75;;;21.90;64.30;;;;;;5033093;28;20596;-15
2022/10/03 08:12:40;;;;;;;10.57;7.55;;;21.90;66.20;;;;;;5032993;28;20079;-15
2022/10/03 08:15:29;;;;;;;14.98;9.43;;;22.00;66.00;;;;;;5032465;28;20033;-16
2022/10/03 08:18:07;;;;;;;10.98;8.43;;;22.10;65.10;;;;;;5033124;28;20623;-15
2022/10/03 08:20:46;;;;;;;7.80;6.35;;;22.20;65.00;;;;;;5033039;28;20029;-14
2022/10/03 08:23:29;;;;;;;8.05;6.57;;;22.40;64.20;;;;;;5032888;28;20032;-15
2022/10/03 08:26:37;;;;;;;9.98;7.00;;;22.60;64.50;;;;;;5033419;28;20486;-15
2022/10/03 08:29:30;;;;;;;11.05;6.82;;;23.00;63.30;;;;;;5033100;28;20026;-15
2022/10/03 08:32:44;;;;;;;11.93;7.88;;;23.30;62.20;;;;;;5015315;28;20073;-15
2022/10/03 08:35:37;;;;;;;8.68;5.72;;;23.50;58.50;;;;;;4972905;28;20437;-15
2022/10/03 08:38:32;;;;;;;10.82;6.50;;;23.70;61.00;;;;;;5033600;28;20022;-14
2022/10/03 08:41:18;;;;;;;6.95;5.18;;;24.10;60.10;;;;;;5032909;28;20060;-15
2022/10/03 08:43:49;;;;;;;7.57;5.65;;;24.50;60.10;;;;;;5033128;28;20034;-15
2022/10/03 08:46:49;;;;;;;9.45;6.57;;;25.00;59.10;;;;;;5032855;28;20052;-15
2022/10/03 08:49:36;;;;;;;6.78;5.32;;;25.40;56.90;;;;;;5032768;28;20041;-15
2022/10/03 08:52:32;;;;;;;9.05;5.47;;;25.80;57.50;;;;;;5032935;28;20057;-15
2022/10/03 08:55:29;;;;;;;8.77;6.47;;;26.20;56.50;;;;;;5032610;28;20036;-14
2022/10/03 08:58:29;;;;;;;9.60;6.43;;;26.60;55.00;;;;;;5032759;28;20041;-15
2022/10/03 09:01:14;;;;;;;10.57;7.38;;;26.80;53.90;;;;;;5032532;28;20022;-15
2022/10/03 09:03:58;;;;;;;9.38;7.38;;;27.00;52.60;;;;;;5032685;28;20030;-15
2022/10/03 09:06:46;;;;;;;8.32;6.68;;;27.00;53.40;;;;;;5015033;28;20366;-15
2022/10/03 09:09:56;;;;;;;10.82;6.20;;;27.10;53.30;;;;;;5032924;28;20436;-15
2022/10/03 09:12:59;;;;;;;8.52;6.60;;;27.10;52.40;;;;;;4965770;28;20065;-15
2022/10/03 09:15:40;;;;;;;8.45;6.70;;;27.10;51.80;;;;;;5013012;28;20029;-15
2022/10/03 09:18:35;;;;;;;10.82;7.00;;;27.30;51.90;;;;;;5013156;28;20056;-15
2022/10/03 09:21:05;;;;;;;8.82;6.90;;;27.40;50.20;;;;;;5012721;28;20022;-15
2022/10/03 09:23:44;;;;;;;8.82;6.50;;;27.70;51.90;;;;;;5012788;28;20046;-15
2022/10/03 09:26:13;;;;;;;11.70;8.73;;;27.90;51.60;;;;;;5013630;28;20053;-15
2022/10/03 09:29:16;;;;;;;9.35;7.88;;;28.00;50.30;;;;;;5015095;28;20041;-15
2022/10/03 09:32:18;;;;;;;8.25;6.38;;;28.10;49.30;;;;;;5015091;28;20405;-15
2022/10/03 09:35:26;;;;;;;8.00;6.35;;;28.20;49.90;;;;;;5016376;28;20026;-15
2022/10/03 09:37:54;;;;;;;8.80;6.90;;;28.50;49.60;;;;;;4955738;29;20050;-15
2022/10/03 09:40:41;;;;;;;6.53;5.60;;;28.60;48.30;;;;;;4955763;29;20392;-15
2022/10/03 09:43:26;;;;;;;12.23;8.20;;;28.70;48.50;;;;;;4955735;29;20067;-16
2022/10/03 09:46:16;;;;;;;10.25;8.55;;;28.60;47.80;;;;;;4955739;29;20063;-15
2022/10/03 09:48:51;;;;;;;7.47;6.13;;;28.40;46.10;;;;;;4955726;29;20511;-14
2022/10/03 09:51:26;;;;;;;5.95;5.10;;;28.10;47.80;;;;;;4955917;29;20049;-16
2022/10/03 09:54:28;;;;;;;7.85;5.82;;;28.00;48.40;;;;;;4955506;29;20365;-14
2022/10/03 09:57:21;;;;;;;7.53;6.22;;;28.10;47.10;;;;;;4955291;29;20038;-14
2022/10/03 10:00:02;;;;;;;8.02;5.90;;;28.30;47.40;;;;;;4955645;29;20024;-15
2022/10/03 10:03:02;;;;;;;5.13;4.63;;;28.40;47.20;;;;;;4955434;29;20035;-15
2022/10/03 10:06:04;;;;;;;6.18;5.00;;;28.80;47.00;;;;;;4955363;29;20157;-15
2022/10/03 10:08:55;;;;;;;5.43;4.38;;;29.20;45.90;;;;;;4955369;29;20620;-14
2022/10/03 10:11:32;;;;;;;7.35;5.50;;;29.60;46.10;;;;;;4954989;29;20055;-14
2022/10/03 10:14:04;;;;;;;7.20;5.60;;;29.90;45.20;;;;;;4974083;28;20061;-14
2022/10/03 10:16:45;;;;;;;10.02;5.85;;;30.20;44.90;;;;;;5015730;28;20025;-14
2022/10/03 10:19:17;;;;;;;7.28;5.35;;;30.40;44.40;;;;;;5015541;28;20030;-15
2022/10/03 10:22:13;;;;;;;6.75;5.13;;;30.40;44.70;;;;;;5015419;28;20030;-15
2022/10/03 10:25:23;;;;;;;5.68;4.50;;;30.60;43.00;;;;;;5015303;28;20061;-14
2022/10/03 10:28:27;;;;;;;7.60;5.70;;;30.80;43.20;;;;;;5015287;28;20109;-14
2022/10/03 10:31:16;;;;;;;7.10;5.32;;;31.20;41.50;;;;;;5015171;28;20026;-14
2022/10/03 10:34:16;;;;;;;9.15;7.05;;;31.40;41.30;;;;;;5015204;28;20030;-15
2022/10/03 10:37:20;;;;;;;9.45;7.85;;;31.60;40.70;;;;;;5015070;28;20505;-14
2022/10/03 10:40:24;;;;;;;9.35;6.75;;;31.10;40.70;;;;;;5014783;28;20037;-14
2022/10/03 10:43:35;;;;;;;8.32;6.20;;;30.20;42.70;;;;;;5014867;28;20052;-15
2022/10/03 10:46:35;;;;;;;8.57;6.15;;;29.90;44.00;;;;;;4981836;28;20025;-15
2022/10/03 10:49:38;;;;;;;8.82;5.55;;;30.00;43.00;;;;;;5014675;28;20044;-15
2022/10/03 10:52:21;;;;;;;6.95;5.55;;;30.40;42.20;;;;;;5015221;28;20061;-15
2022/10/03 10:55:17;;;;;;;6.97;5.40;;;30.90;40.30;;;;;;5014596;28;20504;-16
2022/10/03 10:58:18;;;;;;;5.35;4.55;;;31.30;40.90;;;;;;5002234;28;20029;-14
2022/10/03 11:01:09;;;;;;;8.85;7.10;;;31.80;40.50;;;;;;5006474;28;20544;-15
2022/10/03 11:04:12;;;;;;;5.82;5.22;;;32.20;39.50;;;;;;5014929;28;20034;-15
2022/10/03 11:07:15;;;;;;;6.82;5.85;;;32.40;39.70;;;;;;5015503;28;20052;-15
2022/10/03 11:09:59;;;;;;;7.82;5.75;;;32.60;39.60;;;;;;5014698;28;20054;-15
2022/10/03 11:12:44;;;;;;;7.07;5.25;;;32.60;39.00;;;;;;5032339;28;20098;-14
2022/10/03 11:15:22;;;;;;;6.60;4.88;;;32.70;38.60;;;;;;5034005;28;20037;-16
2022/10/03 11:18:07;;;;;;;6.78;5.68;;;32.90;37.60;;;;;;5034489;28;20477;-15
2022/10/03 11:20:33;;;;;;;8.25;5.82;;;33.20;37.80;;;;;;5034297;28;20068;-15
2022/10/03 11:23:26;;;;;;;6.07;5.05;;;33.40;36.70;;;;;;5034033;28;20444;-15
2022/10/03 11:26:30;;;;;;;7.30;5.95;;;33.50;37.40;;;;;;5034219;28;20033;-15
2022/10/03 11:29:30;;;;;;;7.63;5.95;;;33.70;36.30;;;;;;5033443;28;20034;-15
2022/10/03 11:32:30;;;;;;;6.53;5.60;;;33.90;35.50;;;;;;5034378;28;20116;-15
2022/10/03 11:35:15;;;;;;;6.60;4.57;;;34.00;36.80;;;;;;5034034;28;20048;-15
2022/10/03 11:38:06;;;;;;;7.88;6.07;;;34.30;37.40;;;;;;5034122;28;20033;-14
2022/10/03 11:40:54;;;;;;;8.27;6.30;;;34.60;37.10;;;;;;5033680;28;20171;-15
2022/10/03 11:43:32;;;;;;;8.18;5.65;;;34.80;35.80;;;;;;5033876;28;20054;-15
2022/10/03 11:46:24;;;;;;;6.60;5.28;;;34.90;35.10;;;;;;5033529;28;20116;-15
2022/10/03 11:49:00;;;;;;;5.53;4.25;;;35.10;35.90;;;;;;4996362;28;20087;-15
2022/10/03 11:51:29;;;;;;;8.27;6.65;;;35.10;35.80;;;;;;5033779;28;20459;-15
2022/10/03 11:54:07;;;;;;;7.05;5.70;;;35.20;35.90;;;;;;5033666;28;20026;-15
2022/10/03 11:56:44;;;;;;;8.40;6.05;;;35.20;36.10;;;;;;5033726;28;20059;-15
2022/10/03 11:59:25;;;;;;;7.00;6.20;;;34.90;36.10;;;;;;5033063;28;20037;-15
2022/10/03 12:01:59;;;;;;;7.35;5.55;;;34.50;36.60;;;;;;5033345;28;20040;-16
2022/10/03 12:04:48;;;;;;;6.95;5.47;;;34.00;36.90;;;;;;5033264;28;20444;-15
2022/10/03 12:10:32;;;;;;;7.47;6.40;;;33.90;36.70;;;;;;5033289;28;20083;-15
2022/10/03 12:13:12;;;;;;;8.77;6.30;;;34.20;35.90;;;;;;5032895;28;20129;-15
2022/10/03 12:15:53;;;;;;;10.48;7.18;;;34.30;35.70;;;;;;5033107;28;20030;-15
2022/10/03 12:18:41;;;;;;;6.15;5.00;;;34.30;34.90;;;;;;5033547;28;20079;-15
2022/10/03 12:21:24;;;;;;;6.55;5.70;;;34.10;36.40;;;;;;5032999;28;20037;-15
2022/10/03 12:24:02;;;;;;;8.43;5.95;;;34.00;36.40;;;;;;5033088;28;20389;-15
2022/10/03 12:26:46;;;;;;;8.52;6.75;;;34.00;36.40;;;;;;5033390;28;20033;-15
2022/10/03 12:29:17;;;;;;;8.40;6.07;;;34.10;36.10;;;;;;5032966;28;20416;-15
2022/10/03 12:32:11;;;;;;;7.10;5.10;;;34.20;35.90;;;;;;5033360;28;20033;-15
2022/10/03 12:34:49;;;;;;;7.60;6.60;;;34.50;34.70;;;;;;5033243;28;20041;-15
2022/10/03 12:37:45;;;;;;;7.80;6.13;;;34.70;35.10;;;;;;5032869;28;20036;-15
2022/10/03 12:40:19;;;;;;;9.43;7.03;;;34.80;34.80;;;;;;5033304;28;20460;-15
2022/10/03 12:42:54;;;;;;;6.95;5.43;;;34.90;35.00;;;;;;5033273;28;20021;-15
2022/10/03 12:45:35;;;;;;;9.05;6.85;;;34.90;35.20;;;;;;5032812;28;20112;-15
2022/10/03 12:48:30;;;;;;;6.28;4.88;;;34.60;34.50;;;;;;5032829;28;20045;-15
2022/10/03 12:51:17;;;;;;;8.52;6.78;;;34.10;35.30;;;;;;5032138;28;20117;-16
2022/10/03 12:53:58;;;;;;;6.80;5.80;;;33.80;36.30;;;;;;5033475;28;20024;-15
2022/10/03 12:57:03;;;;;;;7.53;6.43;;;33.70;35.90;;;;;;5033077;28;20500;-15
2022/10/03 12:59:41;;;;;;;9.68;6.53;;;33.70;36.10;;;;;;5032662;28;20024;-15
2022/10/03 13:02:45;;;;;;;7.80;6.18;;;33.90;36.00;;;;;;5034438;28;20041;-14
2022/10/03 13:05:52;;;;;;;7.65;5.50;;;34.20;36.20;;;;;;4956245;29;20122;-15
2022/10/03 13:08:36;;;;;;;9.30;6.05;;;34.60;36.20;;;;;;4956277;29;20036;-15
2022/10/03 13:11:24;;;;;;;9.75;7.10;;;35.10;35.40;;;;;;4955889;29;20059;-15
2022/10/03 13:14:16;;;;;;;8.52;6.35;;;35.30;34.50;;;;;;4956548;29;20063;-15
2022/10/03 13:16:58;;;;;;;8.07;6.13;;;35.40;34.60;;;;;;4957087;29;20038;-15
2022/10/03 13:19:53;;;;;;;8.98;5.82;;;35.40;35.00;;;;;;4956258;29;20054;-15
2022/10/03 13:22:50;;;;;;;8.85;6.47;;;35.50;34.80;;;;;;4938332;29;20035;-15
2022/10/03 13:25:44;;;;;;;8.18;6.38;;;35.60;34.40;;;;;;4956019;29;20035;-15
2022/10/03 13:28:21;;;;;;;7.88;6.90;;;35.70;33.40;;;;;;4941767;29;20047;-14
2022/10/03 13:31:10;;;;;;;9.95;7.70;;;35.80;32.90;;;;;;4955841;29;20427;-15
2022/10/03 13:33:45;;;;;;;9.07;6.82;;;35.70;33.20;;;;;;4955935;29;20038;-15
2022/10/03 13:36:38;;;;;;;13.45;8.45;;;35.70;33.40;;;;;;4956184;29;20050;-14
2022/10/03 13:39:10;;;;;;;11.45;8.38;;;35.40;33.00;;;;;;4955729;29;20090;-14
2022/10/03 13:42:04;;;;;;;9.30;7.07;;;34.90;34.50;;;;;;4998835;28;20026;-15
2022/10/03 13:44:35;;;;;;;10.68;9.43;;;34.30;35.50;;;;;;5035801;28;20084;-14
2022/10/03 13:47:42;;;;;;;12.23;7.80;;;33.70;36.40;;;;;;5035661;28;20096;-15
2022/10/03 13:50:27;;;;;;;7.50;5.90;;;33.10;37.00;;;;;;5035649;28;20042;-17
2022/10/03 13:53:01;;;;;;;10.95;8.43;;;33.10;37.80;;;;;;5035846;28;20033;-15
2022/10/03 13:56:12;;;;;;;10.75;8.45;;;33.30;37.50;;;;;;5035685;28;20485;-15
2022/10/03 13:58:58;;;;;;;7.60;6.32;;;33.40;37.10;;;;;;4955472;29;20027;-15
2022/10/03 14:01:43;;;;;;;11.25;9.35;;;33.40;37.20;;;;;;4955473;29;20030;-16
2022/10/03 14:04:38;;;;;;;8.52;7.15;;;33.60;36.30;;;;;;4955731;29;20122;-15
2022/10/03 14:07:34;;;;;;;10.88;8.02;;;33.50;36.90;;;;;;4955393;29;20039;-15
2022/10/03 14:10:09;;;;;;;10.57;8.40;;;33.30;37.40;;;;;;4955740;29;20118;-15
2022/10/03 14:13:05;;;;;;;9.98;7.75;;;33.00;37.70;;;;;;4955060;28;20471;-15
2022/10/03 14:15:47;;;;;;;10.23;8.63;;;32.80;38.30;;;;;;4955110;29;20023;-15
2022/10/03 14:18:59;;;;;;;10.93;8.45;;;32.50;39.00;;;;;;4955900;29;20031;-15
2022/10/03 14:21:51;;;;;;;12.73;7.72;;;32.40;39.50;;;;;;4955773;29;20035;-15